Terminal Aerodrome Forecast
Issued by NWS

Home | Current Version | Previous Version | Text Only | Print | Product List | Glossary On
Versions: 1 2 3 4 5 6 7 8 9 10 11 12 13 14 15 16 17
000
FTAK31 PAJN 172300
TAFAPG
TAF
PAPG 172337Z 1800/1824 08012KT P6SM -RA SCT025 OVC040
     FM180200 VRB06KT 5SM -RA BR BKN020 OVC030
     FM180500 VRB06KT 6SM -SHRA BR BKN025 OVC040
     FM181500 VRB03KT P6SM -SHRA BKN035 OVC070
     FM182100 07005KT P6SM VCSH BKN040 OVC080
      AMD LTD TO CLD VIS AND WIND 1806/1815=

USA.gov is the U.S. government's official web portal to all federal, state and local government web resources and services.